sensor_id;sensor_type;location;lat;lon;timestamp;pressure;altitude;pressure_sealevel;temperature;humidity
31011;BME280;26395;53.412;19.598;2023-07-30T00:04:56;99446.45;;;21.53;100.00
31011;BME280;26395;53.412;19.598;2023-07-30T00:19:59;99445.20;;;21.52;100.00
31011;BME280;26395;53.412;19.598;2023-07-30T00:35:02;99440.91;;;21.25;100.00
31011;BME280;26395;53.412;19.598;2023-07-30T00:50:07;99447.37;;;21.17;100.00
31011;BME280;26395;53.412;19.598;2023-07-30T01:05:11;99453.42;;;20.62;100.00
31011;BME280;26395;53.412;19.598;2023-07-30T01:20:14;99462.20;;;20.67;100.00
31011;BME280;26395;53.412;19.598;2023-07-30T01:35:22;99481.66;;;20.66;100.00
31011;BME280;26395;53.412;19.598;2023-07-30T01:50:28;99495.08;;;20.16;100.00
31011;BME280;26395;53.412;19.598;2023-07-30T02:05:31;99501.13;;;20.15;100.00
31011;BME280;26395;53.412;19.598;2023-07-30T02:20:35;99508.82;;;20.32;100.00
31011;BME280;26395;53.412;19.598;2023-07-30T02:35:38;99515.20;;;20.19;100.00
31011;BME280;26395;53.412;19.598;2023-07-30T02:50:41;99511.59;;;20.34;100.00
31011;BME280;26395;53.412;19.598;2023-07-30T03:05:44;99520.90;;;19.72;100.00
31011;BME280;26395;53.412;19.598;2023-07-30T03:20:48;99521.44;;;19.79;100.00
31011;BME280;26395;53.412;19.598;2023-07-30T03:35:51;99530.66;;;19.68;100.00
31011;BME280;26395;53.412;19.598;2023-07-30T03:50:55;99534.59;;;19.61;100.00
31011;BME280;26395;53.412;19.598;2023-07-30T04:05:58;99534.11;;;19.65;100.00
31011;BME280;26395;53.412;19.598;2023-07-30T04:21:01;99545.10;;;20.06;100.00
31011;BME280;26395;53.412;19.598;2023-07-30T04:36:05;99554.19;;;19.85;100.00
31011;BME280;26395;53.412;19.598;2023-07-30T04:51:10;99556.77;;;19.92;100.00
31011;BME280;26395;53.412;19.598;2023-07-30T05:06:13;99570.34;;;20.45;100.00
31011;BME280;26395;53.412;19.598;2023-07-30T05:21:16;99593.79;;;20.98;100.00
31011;BME280;26395;53.412;19.598;2023-07-30T05:36:20;99614.58;;;21.07;100.00
31011;BME280;26395;53.412;19.598;2023-07-30T05:51:23;99630.73;;;21.27;100.00
31011;BME280;26395;53.412;19.598;2023-07-30T06:06:26;99637.48;;;21.53;100.00
31011;BME280;26395;53.412;19.598;2023-07-30T06:21:30;99648.30;;;21.62;100.00
31011;BME280;26395;53.412;19.598;2023-07-30T06:36:33;99653.96;;;21.56;100.00
31011;BME280;26395;53.412;19.598;2023-07-30T06:51:37;99657.58;;;21.43;100.00
31011;BME280;26395;53.412;19.598;2023-07-30T07:06:42;99664.75;;;21.45;100.00
31011;BME280;26395;53.412;19.598;2023-07-30T07:21:45;99677.05;;;21.91;100.00
31011;BME280;26395;53.412;19.598;2023-07-30T07:36:49;99679.36;;;22.18;100.00
31011;BME280;26395;53.412;19.598;2023-07-30T07:51:52;99677.90;;;23.00;100.00
31011;BME280;26395;53.412;19.598;2023-07-30T08:06:55;99662.83;;;23.61;100.00
31011;BME280;26395;53.412;19.598;2023-07-30T08:22:03;99672.21;;;24.14;99.61
31011;BME280;26395;53.412;19.598;2023-07-30T08:37:06;99682.95;;;24.23;98.00
31011;BME280;26395;53.412;19.598;2023-07-30T08:52:10;99692.16;;;23.82;97.24
31011;BME280;26395;53.412;19.598;2023-07-30T09:07:13;99701.62;;;23.80;97.49
31011;BME280;26395;53.412;19.598;2023-07-30T09:22:27;99703.20;;;24.45;96.35
31011;BME280;26395;53.412;19.598;2023-07-30T09:37:31;99712.63;;;25.22;91.82
31011;BME280;26395;53.412;19.598;2023-07-30T09:52:35;99712.20;;;26.32;86.38
31011;BME280;26395;53.412;19.598;2023-07-30T10:07:44;99719.52;;;27.55;79.79
31011;BME280;26395;53.412;19.598;2023-07-30T10:22:55;99706.72;;;28.16;76.34
31011;BME280;26395;53.412;19.598;2023-07-30T10:37:58;99705.09;;;28.76;72.20
31011;BME280;26395;53.412;19.598;2023-07-30T10:53:01;99691.70;;;28.73;71.46
31011;BME280;26395;53.412;19.598;2023-07-30T11:08:05;99689.94;;;29.29;70.84
31011;BME280;26395;53.412;19.598;2023-07-30T11:23:19;99681.75;;;29.27;67.38
31011;BME280;26395;53.412;19.598;2023-07-30T11:38:25;99673.36;;;29.39;65.75
31011;BME280;26395;53.412;19.598;2023-07-30T11:53:54;99667.72;;;30.00;63.71
31011;BME280;26395;53.412;19.598;2023-07-30T12:09:23;99656.32;;;30.29;62.49
31011;BME280;26395;53.412;19.598;2023-07-30T12:24:30;99649.89;;;30.02;62.47
31011;BME280;26395;53.412;19.598;2023-07-30T12:39:36;99639.20;;;29.68;62.38
31011;BME280;26395;53.412;19.598;2023-07-30T12:54:53;99637.55;;;29.23;62.57
31011;BME280;26395;53.412;19.598;2023-07-30T13:10:05;99630.58;;;29.55;63.14
31011;BME280;26395;53.412;19.598;2023-07-30T13:25:11;99623.90;;;30.15;61.53
31011;BME280;26395;53.412;19.598;2023-07-30T13:40:15;99613.92;;;29.78;61.68
31011;BME280;26395;53.412;19.598;2023-07-30T13:55:24;99611.71;;;29.84;59.60
31011;BME280;26395;53.412;19.598;2023-07-30T14:10:30;99607.77;;;30.45;57.41
31011;BME280;26395;53.412;19.598;2023-07-30T14:25:38;99597.44;;;29.86;58.96
31011;BME280;26395;53.412;19.598;2023-07-30T14:40:43;99589.01;;;29.46;60.21
31011;BME280;26395;53.412;19.598;2023-07-30T14:55:46;99587.30;;;29.92;58.61
31011;BME280;26395;53.412;19.598;2023-07-30T15:10:50;99581.04;;;30.04;57.16
31011;BME280;26395;53.412;19.598;2023-07-30T15:25:54;99566.36;;;30.01;56.83
31011;BME280;26395;53.412;19.598;2023-07-30T15:41:03;99561.27;;;29.60;56.13
31011;BME280;26395;53.412;19.598;2023-07-30T15:56:10;99558.57;;;29.50;57.17
31011;BME280;26395;53.412;19.598;2023-07-30T16:11:23;99551.70;;;29.63;56.14
31011;BME280;26395;53.412;19.598;2023-07-30T16:26:45;99543.30;;;29.36;56.43
31011;BME280;26395;53.412;19.598;2023-07-30T16:41:49;99537.50;;;29.03;56.25
31011;BME280;26395;53.412;19.598;2023-07-30T16:56:52;99558.42;;;28.60;56.17
31011;BME280;26395;53.412;19.598;2023-07-30T17:11:55;99571.23;;;27.79;57.82
31011;BME280;26395;53.412;19.598;2023-07-30T17:26:59;99573.90;;;27.11;59.95
31011;BME280;26395;53.412;19.598;2023-07-30T17:42:04;99579.19;;;26.93;60.82
31011;BME280;26395;53.412;19.598;2023-07-30T17:57:12;99585.84;;;26.23;63.16
31011;BME280;26395;53.412;19.598;2023-07-30T18:12:20;99587.61;;;25.36;66.03
31011;BME280;26395;53.412;19.598;2023-07-30T18:27:25;99590.22;;;24.82;66.69
31011;BME280;26395;53.412;19.598;2023-07-30T18:42:29;99586.30;;;24.38;69.35
31011;BME280;26395;53.412;19.598;2023-07-30T18:57:33;99594.50;;;23.61;72.06
31011;BME280;26395;53.412;19.598;2023-07-30T19:12:46;99605.73;;;23.78;73.61
31011;BME280;26395;53.412;19.598;2023-07-30T19:27:52;99604.29;;;24.02;74.02
31011;BME280;26395;53.412;19.598;2023-07-30T19:43:03;99606.61;;;23.33;76.36
31011;BME280;26395;53.412;19.598;2023-07-30T19:58:40;99619.16;;;22.97;78.99
31011;BME280;26395;53.412;19.598;2023-07-30T20:13:47;99635.79;;;22.87;81.51
31011;BME280;26395;53.412;19.598;2023-07-30T20:28:53;99649.05;;;22.79;83.76
31011;BME280;26395;53.412;19.598;2023-07-30T20:44:01;99655.00;;;22.74;83.66
31011;BME280;26395;53.412;19.598;2023-07-30T20:59:07;99673.05;;;22.54;84.61
31011;BME280;26395;53.412;19.598;2023-07-30T21:14:11;99671.41;;;22.38;85.79
31011;BME280;26395;53.412;19.598;2023-07-30T21:29:15;99678.20;;;22.04;87.26
31011;BME280;26395;53.412;19.598;2023-07-30T21:44:19;99669.16;;;21.97;89.17
31011;BME280;26395;53.412;19.598;2023-07-30T21:59:23;99658.65;;;22.16;88.99
31011;BME280;26395;53.412;19.598;2023-07-30T22:14:28;99655.29;;;21.59;93.18
31011;BME280;26395;53.412;19.598;2023-07-30T22:29:32;99657.20;;;21.36;93.82
31011;BME280;26395;53.412;19.598;2023-07-30T22:44:35;99665.41;;;20.84;95.86
31011;BME280;26395;53.412;19.598;2023-07-30T22:59:39;99672.16;;;20.52;96.18
31011;BME280;26395;53.412;19.598;2023-07-30T23:14:42;99675.64;;;20.53;95.90
31011;BME280;26395;53.412;19.598;2023-07-30T23:41:44;99667.25;;;19.91;100.00
31011;BME280;26395;53.412;19.598;2023-07-30T23:56:47;99665.48;;;19.68;99.99
